createdAt,value
2023-06-29T00:01:34.760Z,94761.63
2023-06-29T00:04:03.041Z,94769.09
2023-06-29T00:06:30.095Z,94775.31
2023-06-29T00:08:56.994Z,94767.50
2023-06-29T00:11:23.999Z,94762.44
2023-06-29T00:13:50.939Z,94768.16
2023-06-29T00:16:18.504Z,94774.69
2023-06-29T00:18:45.968Z,94770.41
2023-06-29T00:21:12.876Z,94770.69
2023-06-29T00:23:39.768Z,94754.16
2023-06-29T00:26:06.730Z,94744.13
2023-06-29T00:28:33.664Z,94744.72
2023-06-29T00:31:01.094Z,94748.53
2023-06-29T00:33:28.429Z,94744.78
2023-06-29T00:35:56.818Z,94740.09
2023-06-29T00:38:23.984Z,94736.78
2023-06-29T00:40:51.101Z,94742.38
2023-06-29T00:43:19.218Z,94749.75
2023-06-29T00:45:46.118Z,94753.44
2023-06-29T00:48:13.727Z,94750.91
2023-06-29T00:50:41.916Z,94746.16
2023-06-29T00:53:09.254Z,94753.09
2023-06-29T00:55:37.953Z,94758.34
2023-06-29T00:58:04.979Z,94757.53
2023-06-29T01:00:32.049Z,94753.44
2023-06-29T01:02:59.073Z,94756.84
2023-06-29T01:05:26.206Z,94760.16
2023-06-29T01:08:06.679Z,94756.19
2023-06-29T01:10:34.998Z,94756.47
2023-06-29T01:13:04.134Z,94758.91
2023-06-29T01:15:31.568Z,94760.72
2023-06-29T01:18:01.376Z,94763.38
2023-06-29T01:20:32.389Z,94764.66
2023-06-29T01:23:16.177Z,94755.88
2023-06-29T01:25:44.299Z,94767.03
2023-06-29T01:28:12.011Z,94761.78
2023-06-29T01:30:41.092Z,94762.13
2023-06-29T01:33:09.555Z,94759.41
2023-06-29T01:35:36.739Z,94759.59
2023-06-29T01:38:14.403Z,94759.59
2023-06-29T01:40:45.146Z,94759.78
2023-06-29T01:43:12.136Z,94750.34
2023-06-29T01:45:41.760Z,94753.41
2023-06-29T01:48:09.041Z,94756.94
2023-06-29T01:50:36.567Z,94752.00
2023-06-29T01:53:04.590Z,94749.75
2023-06-29T01:55:31.583Z,94750.72
2023-06-29T01:57:58.645Z,94748.19
2023-06-29T02:00:25.824Z,94758.34
2023-06-29T02:02:52.839Z,94753.75
2023-06-29T02:05:20.672Z,94757.72
2023-06-29T02:07:47.577Z,94755.47
2023-06-29T02:10:14.633Z,94765.03
2023-06-29T02:12:42.149Z,94762.19
2023-06-29T02:15:11.089Z,94762.03
2023-06-29T02:17:38.590Z,94751.81
2023-06-29T02:20:10.451Z,94758.53
2023-06-29T02:22:38.793Z,94759.66
2023-06-29T02:25:06.351Z,94760.25
2023-06-29T02:27:33.251Z,94753.25
2023-06-29T02:30:00.261Z,94760.25
2023-06-29T02:32:27.262Z,94766.97
2023-06-29T02:34:54.423Z,94759.00
2023-06-29T02:37:21.435Z,94755.97
2023-06-29T02:39:48.407Z,94751.69
2023-06-29T02:42:15.496Z,94758.06
2023-06-29T02:44:42.552Z,94761.72
2023-06-29T02:47:09.447Z,94761.69
2023-06-29T02:49:36.671Z,94759.31
2023-06-29T02:52:04.467Z,94769.97
2023-06-29T02:54:31.625Z,94766.97
2023-06-29T02:56:58.802Z,94764.91
2023-06-29T02:59:28.194Z,94765.38
2023-06-29T03:01:55.142Z,94771.56
2023-06-29T03:04:22.176Z,94775.53
2023-06-29T03:06:49.263Z,94775.88
2023-06-29T03:09:16.343Z,94779.69
2023-06-29T03:11:43.315Z,94777.47
2023-06-29T03:14:10.215Z,94776.19
2023-06-29T03:16:37.184Z,94774.59
2023-06-29T03:19:04.255Z,94786.56
2023-06-29T03:21:31.366Z,94780.16
2023-06-29T03:23:58.358Z,94779.53
2023-06-29T03:26:25.797Z,94781.94
2023-06-29T03:28:53.105Z,94777.78
2023-06-29T03:31:20.272Z,94785.25
2023-06-29T03:33:47.472Z,94786.53
2023-06-29T03:36:14.573Z,94779.34
2023-06-29T03:38:41.515Z,94785.72
2023-06-29T03:41:08.447Z,94787.63
2023-06-29T03:43:35.347Z,94783.97
2023-06-29T03:46:02.407Z,94784.78
2023-06-29T03:48:29.465Z,94793.38
2023-06-29T03:50:58.383Z,94790.06
2023-06-29T03:53:25.433Z,94797.84
2023-06-29T03:55:52.468Z,94792.59
2023-06-29T03:58:19.633Z,94792.13
2023-06-29T04:00:46.775Z,94800.06
2023-06-29T04:03:13.801Z,94794.66
2023-06-29T04:05:41.318Z,94797.53
2023-06-29T04:08:08.552Z,94791.13
2023-06-29T04:10:36.119Z,94802.59
2023-06-29T04:13:03.107Z,94799.25
2023-06-29T04:15:31.531Z,94803.25
2023-06-29T04:17:58.681Z,94799.25
2023-06-29T04:20:26.005Z,94799.41
2023-06-29T04:22:53.052Z,94790.16
2023-06-29T04:25:20.187Z,94792.72
2023-06-29T04:27:47.377Z,94790.19
2023-06-29T04:30:18.877Z,94791.94
2023-06-29T04:32:46.891Z,94793.53
2023-06-29T04:35:14.733Z,94791.47
2023-06-29T04:37:42.810Z,94792.25
2023-06-29T04:40:11.257Z,94790.28
2023-06-29T04:42:49.160Z,94794.00
2023-06-29T04:45:19.400Z,94799.72
2023-06-29T04:47:52.763Z,94794.25
2023-06-29T04:50:26.921Z,94797.13
2023-06-29T04:52:55.317Z,94806.69
2023-06-29T04:55:23.141Z,94798.53
2023-06-29T04:57:50.099Z,94803.13
2023-06-29T05:00:17.642Z,94808.69
2023-06-29T05:02:45.116Z,94806.56
2023-06-29T05:05:12.893Z,94801.13
2023-06-29T05:07:40.261Z,94821.72
2023-06-29T05:10:08.245Z,94818.06
2023-06-29T05:12:35.475Z,94817.81
2023-06-29T05:15:03.331Z,94815.16
2023-06-29T05:17:31.079Z,94822.44
2023-06-29T05:19:59.641Z,94825.84
2023-06-29T05:22:27.310Z,94821.22
2023-06-29T05:24:54.377Z,94824.81
2023-06-29T05:27:21.421Z,94818.72
2023-06-29T05:29:48.737Z,94823.75
2023-06-29T05:32:15.681Z,94819.09
2023-06-29T05:34:42.686Z,94827.56
2023-06-29T05:37:09.683Z,94831.91
2023-06-29T05:39:36.882Z,94829.84
2023-06-29T05:42:04.903Z,94828.25
2023-06-29T05:44:32.030Z,94834.81
2023-06-29T05:46:59.990Z,94825.75
2023-06-29T05:49:27.383Z,94828.06
2023-06-29T05:51:54.430Z,94828.16
2023-06-29T05:54:21.513Z,94831.81
2023-06-29T05:56:48.721Z,94830.22
2023-06-29T05:59:15.892Z,94833.59
2023-06-29T06:01:43.483Z,94821.69
2023-06-29T06:04:11.172Z,94835.22
2023-06-29T06:06:38.437Z,94830.91
2023-06-29T06:09:05.916Z,94825.84
2023-06-29T06:11:33.737Z,94834.25
2023-06-29T06:14:00.924Z,94830.25
2023-06-29T06:16:30.853Z,94832.47
2023-06-29T06:18:57.860Z,94830.00
2023-06-29T06:21:27.999Z,94834.31
2023-06-29T06:23:55.148Z,94835.78
2023-06-29T06:26:22.214Z,94832.81
2023-06-29T06:28:49.734Z,94825.09
2023-06-29T06:31:28.557Z,94832.81
2023-06-29T06:33:59.331Z,94840.72
2023-06-29T06:36:27.946Z,94830.09
2023-06-29T06:38:55.033Z,94838.06
2023-06-29T06:41:22.129Z,94838.13
2023-06-29T06:43:49.108Z,94837.50
2023-06-29T06:46:16.306Z,94832.06
2023-06-29T06:48:45.782Z,94833.88
2023-06-29T06:51:12.883Z,94828.78
2023-06-29T06:53:40.680Z,94832.88
2023-06-29T06:56:07.989Z,94827.69
2023-06-29T06:58:35.631Z,94830.56
2023-06-29T07:01:02.873Z,94824.88
2023-06-29T07:03:30.522Z,94824.19
2023-06-29T07:05:59.685Z,94830.00
2023-06-29T07:08:26.953Z,94831.69
2023-06-29T07:10:55.560Z,94829.44
2023-06-29T07:13:22.688Z,94828.03
2023-06-29T07:15:49.939Z,94830.00
2023-06-29T07:18:17.040Z,94826.47
2023-06-29T07:25:45.474Z,94832.50
2023-06-29T07:28:13.363Z,94834.41
2023-06-29T07:30:40.355Z,94829.63
2023-06-29T07:33:07.365Z,94828.25
2023-06-29T07:35:34.467Z,94827.00
2023-06-29T07:38:01.456Z,94828.03
2023-06-29T07:40:29.976Z,94830.56
2023-06-29T07:42:57.358Z,94824.38
2023-06-29T07:45:24.384Z,94812.59
2023-06-29T07:47:52.245Z,94823.09
2023-06-29T07:50:20.101Z,94824.09
2023-06-29T07:52:47.359Z,94814.75
2023-06-29T07:55:14.711Z,94821.44
2023-06-29T08:00:12.319Z,94814.06
2023-06-29T08:02:48.226Z,94817.38
2023-06-29T08:07:45.421Z,94820.47
2023-06-29T08:10:12.880Z,94821.97
2023-06-29T08:12:39.971Z,94814.34
2023-06-29T08:15:07.737Z,94817.75
2023-06-29T08:17:34.730Z,94813.69
2023-06-29T08:20:01.806Z,94816.25
2023-06-29T08:22:28.943Z,94819.06
2023-06-29T08:24:55.980Z,94816.38
2023-06-29T08:27:23.090Z,94809.59
2023-06-29T08:29:51.417Z,94810.56
2023-06-29T08:32:18.549Z,94814.88
2023-06-29T08:34:45.564Z,94813.94
2023-06-29T08:37:13.913Z,94815.25
2023-06-29T08:39:41.920Z,94809.63
2023-06-29T08:42:08.925Z,94813.03
2023-06-29T08:44:36.156Z,94807.84
2023-06-29T08:47:06.391Z,94798.38
2023-06-29T08:49:36.832Z,94801.13
2023-06-29T08:52:05.932Z,94801.63
2023-06-29T08:54:33.757Z,94804.41
2023-06-29T08:57:02.370Z,94800.63
2023-06-29T08:59:30.141Z,94798.53
2023-06-29T09:02:01.173Z,94799.75
2023-06-29T09:04:28.732Z,94800.78
2023-06-29T09:06:57.510Z,94793.84
2023-06-29T09:09:25.001Z,94785.84
2023-06-29T09:11:52.658Z,94787.41
2023-06-29T09:14:20.086Z,94788.25
2023-06-29T09:16:52.669Z,94776.19
2023-06-29T09:19:20.970Z,94783.38
2023-06-29T09:21:49.186Z,94780.00
2023-06-29T09:24:17.476Z,94776.41
2023-06-29T09:26:45.089Z,94780.97
2023-06-29T09:29:12.011Z,94777.53
2023-06-29T09:31:39.219Z,94777.50
2023-06-29T09:34:20.133Z,94774.25
2023-06-29T09:36:48.355Z,94773.50
2023-06-29T09:39:16.200Z,94765.59
2023-06-29T09:41:51.198Z,94767.84
2023-06-29T09:44:23.640Z,94773.63
2023-06-29T09:49:22.060Z,94764.94
2023-06-29T09:51:49.743Z,94771.00
2023-06-29T09:54:16.789Z,94765.25
2023-06-29T09:56:43.910Z,94769.72
2023-06-29T09:59:15.208Z,94772.78
2023-06-29T10:01:42.449Z,94771.38
2023-06-29T10:04:09.587Z,94777.38
2023-06-29T10:06:51.321Z,94763.59
2023-06-29T10:09:20.835Z,94763.50
2023-06-29T10:11:52.807Z,94760.66
2023-06-29T10:14:22.387Z,94762.25
2023-06-29T10:16:54.080Z,94755.03
2023-06-29T10:19:22.834Z,94752.06
2023-06-29T10:21:55.469Z,94749.59
2023-06-29T10:24:26.267Z,94740.09
2023-06-29T10:26:54.092Z,94736.72
2023-06-29T10:29:21.235Z,94734.09
2023-06-29T10:31:57.799Z,94743.16
2023-06-29T10:34:28.170Z,94737.03
2023-06-29T10:37:00.104Z,94726.25
2023-06-29T10:39:41.547Z,94729.97
2023-06-29T10:43:00.850Z,94740.50
2023-06-29T10:45:32.278Z,94732.03
2023-06-29T10:48:05.672Z,94735.00
2023-06-29T10:50:37.127Z,94725.84
2023-06-29T10:53:05.570Z,94724.06
2023-06-29T10:55:41.268Z,94721.53
2023-06-29T10:58:15.203Z,94728.72
2023-06-29T11:00:43.022Z,94720.06
2023-06-29T11:03:11.881Z,94726.75
2023-06-29T11:05:39.109Z,94729.50
2023-06-29T11:08:10.621Z,94722.50
2023-06-29T11:10:37.840Z,94717.41
2023-06-29T11:13:10.725Z,94719.34
2023-06-29T11:15:40.045Z,94721.72
2023-06-29T11:18:09.141Z,94718.56
2023-06-29T11:20:41.060Z,94705.97
2023-06-29T11:23:08.961Z,94720.78
2023-06-29T11:25:37.873Z,94714.84
2023-06-29T11:28:05.363Z,94708.13
2023-06-29T11:30:32.798Z,94704.94
2023-06-29T11:33:02.544Z,94712.13
2023-06-29T11:35:30.748Z,94705.88
2023-06-29T11:38:02.194Z,94705.09
2023-06-29T11:40:29.715Z,94703.28
2023-06-29T11:42:57.097Z,94700.25
2023-06-29T11:45:25.112Z,94698.81
2023-06-29T11:47:55.584Z,94696.47
2023-06-29T11:50:22.857Z,94703.06
2023-06-29T11:52:50.777Z,94687.19
2023-06-29T11:55:18.477Z,94698.97
2023-06-29T11:57:51.557Z,94686.66
2023-06-29T12:00:32.565Z,94698.91
2023-06-29T12:03:08.341Z,94697.50
2023-06-29T12:05:45.321Z,94694.41
2023-06-29T12:08:12.718Z,94683.03
2023-06-29T12:10:40.591Z,94692.66
2023-06-29T12:13:11.069Z,94681.81
2023-06-29T12:15:38.543Z,94671.69
2023-06-29T12:18:13.621Z,94663.69
2023-06-29T12:20:44.488Z,94674.66
2023-06-29T12:23:16.673Z,94677.16
2023-06-29T12:25:53.838Z,94677.78
2023-06-29T12:28:21.010Z,94673.22
2023-06-29T12:30:48.523Z,94661.03
2023-06-29T12:33:16.177Z,94672.66
2023-06-29T12:35:46.160Z,94664.53
2023-06-29T12:38:13.464Z,94664.00
2023-06-29T12:40:40.901Z,94660.06
2023-06-29T12:43:08.339Z,94663.03
2023-06-29T12:45:35.961Z,94657.22
2023-06-29T12:48:05.136Z,94649.88
2023-06-29T12:50:32.418Z,94653.03
2023-06-29T12:52:59.581Z,94654.13
2023-06-29T12:55:26.728Z,94649.22
2023-06-29T12:57:54.013Z,94644.66
2023-06-29T13:00:22.070Z,94647.38
2023-06-29T13:02:49.392Z,94649.25
2023-06-29T13:05:16.595Z,94650.41
2023-06-29T13:07:44.469Z,94645.69
2023-06-29T13:10:14.575Z,94644.41
2023-06-29T13:12:43.166Z,94641.78
2023-06-29T13:15:11.122Z,94644.91
2023-06-29T13:17:38.280Z,94642.22
2023-06-29T13:20:06.422Z,94636.81
2023-06-29T13:22:35.401Z,94636.66
2023-06-29T13:25:03.218Z,94637.53
2023-06-29T13:27:30.568Z,94631.97
2023-06-29T13:29:57.683Z,94635.94
2023-06-29T13:32:25.275Z,94632.69
2023-06-29T13:34:52.906Z,94631.81
2023-06-29T13:37:19.963Z,94623.84
2023-06-29T13:39:48.323Z,94618.84
2023-06-29T13:42:17.646Z,94621.94
2023-06-29T13:44:45.482Z,94618.38
2023-06-29T13:47:18.963Z,94623.69
2023-06-29T13:49:47.367Z,94617.81
2023-06-29T13:52:14.446Z,94622.25
2023-06-29T13:54:41.850Z,94614.41
2023-06-29T13:57:08.931Z,94619.75
2023-06-29T13:59:35.957Z,94617.19
2023-06-29T14:02:03.488Z,94622.34
2023-06-29T14:04:32.863Z,94625.84
2023-06-29T14:06:59.865Z,94621.41
2023-06-29T14:09:28.846Z,94628.28
2023-06-29T14:12:00.054Z,94623.25
2023-06-29T14:14:27.095Z,94625.28
2023-06-29T14:16:54.089Z,94625.06
2023-06-29T14:19:21.104Z,94623.06
2023-06-29T14:21:48.140Z,94618.59
2023-06-29T14:24:15.209Z,94611.41
2023-06-29T14:26:42.232Z,94619.16
2023-06-29T14:29:09.223Z,94613.28
2023-06-29T14:31:37.321Z,94613.22
2023-06-29T14:34:04.521Z,94608.69
2023-06-29T14:36:31.705Z,94602.41
2023-06-29T14:38:59.561Z,94609.63
2023-06-29T14:41:26.539Z,94612.97
2023-06-29T14:43:53.456Z,94608.59
2023-06-29T14:46:20.490Z,94614.97
2023-06-29T14:48:47.615Z,94609.78
2023-06-29T14:51:14.745Z,94609.09
2023-06-29T14:53:41.628Z,94605.63
2023-06-29T14:56:10.933Z,94602.59
2023-06-29T14:58:38.377Z,94599.81
2023-06-29T15:01:05.736Z,94600.22
2023-06-29T15:03:33.249Z,94598.69
2023-06-29T15:06:00.518Z,94603.69
2023-06-29T15:08:28.360Z,94603.09
2023-06-29T15:10:55.650Z,94592.81
2023-06-29T15:13:23.028Z,94601.41
2023-06-29T15:15:50.396Z,94595.00
2023-06-29T15:18:19.165Z,94595.34
2023-06-29T15:20:46.981Z,94596.22
2023-06-29T15:23:14.501Z,94589.97
2023-06-29T15:25:42.745Z,94587.88
2023-06-29T15:28:11.988Z,94583.78
2023-06-29T15:30:52.084Z,94587.06
2023-06-29T15:33:20.284Z,94584.78
2023-06-29T15:35:47.814Z,94595.34
2023-06-29T15:38:15.383Z,94588.84
2023-06-29T15:40:42.872Z,94587.44
2023-06-29T15:43:10.089Z,94592.31
2023-06-29T15:45:37.200Z,94597.25
2023-06-29T15:48:04.490Z,94589.88
2023-06-29T15:50:31.474Z,94594.09
2023-06-29T15:52:58.891Z,94594.56
2023-06-29T15:55:26.042Z,94591.38
2023-06-29T15:57:53.081Z,94585.81
2023-06-29T16:00:20.441Z,94594.03
2023-06-29T16:02:48.764Z,94600.31
2023-06-29T16:05:16.165Z,94594.50
2023-06-29T16:07:43.179Z,94597.34
2023-06-29T16:10:10.898Z,94594.81
2023-06-29T16:12:37.924Z,94597.00
2023-06-29T16:15:05.671Z,94598.97
2023-06-29T16:17:33.401Z,94590.31
2023-06-29T16:20:00.600Z,94600.44
2023-06-29T16:22:28.373Z,94590.28
2023-06-29T16:24:55.569Z,94591.38
2023-06-29T16:27:22.549Z,94595.16
2023-06-29T16:29:49.529Z,94595.75
2023-06-29T16:32:16.820Z,94600.50
2023-06-29T16:34:44.001Z,94594.47
2023-06-29T16:37:11.224Z,94600.38
2023-06-29T16:39:38.580Z,94606.31
2023-06-29T16:42:06.424Z,94602.56
2023-06-29T16:44:36.621Z,94610.31
2023-06-29T16:47:03.805Z,94597.25
2023-06-29T16:49:31.077Z,94602.72
2023-06-29T16:51:58.136Z,94608.88
2023-06-29T16:54:25.474Z,94601.50
2023-06-29T16:56:52.400Z,94591.19
2023-06-29T16:59:19.328Z,94605.22
2023-06-29T17:01:46.410Z,94604.31
2023-06-29T17:04:13.785Z,94609.31
2023-06-29T17:06:40.808Z,94604.97
2023-06-29T17:09:07.941Z,94606.53
2023-06-29T17:11:35.006Z,94600.50
2023-06-29T17:14:02.723Z,94598.53
2023-06-29T17:16:29.966Z,94599.59
2023-06-29T17:18:57.096Z,94595.53
2023-06-29T17:21:28.444Z,94603.81
2023-06-29T17:23:55.780Z,94604.72
2023-06-29T17:26:24.287Z,94610.59
2023-06-29T17:28:51.325Z,94604.81
2023-06-29T17:31:18.522Z,94608.31
2023-06-29T17:33:54.736Z,94605.94
2023-06-29T17:36:23.719Z,94600.44
2023-06-29T17:38:51.450Z,94610.44
2023-06-29T17:41:18.718Z,94611.84
2023-06-29T17:43:45.998Z,94613.97
2023-06-29T17:46:14.227Z,94615.63
2023-06-29T17:48:41.456Z,94614.72
2023-06-29T17:51:18.940Z,94611.50
2023-06-29T17:53:47.342Z,94625.50
2023-06-29T17:56:15.839Z,94626.63
2023-06-29T17:58:46.477Z,94629.16
2023-06-29T18:01:14.282Z,94630.19
2023-06-29T18:03:41.990Z,94629.59
2023-06-29T18:06:09.447Z,94628.88
2023-06-29T18:08:36.450Z,94632.75
2023-06-29T18:11:04.141Z,94635.06
2023-06-29T18:13:31.075Z,94634.97
2023-06-29T18:15:58.059Z,94638.38
2023-06-29T18:18:25.053Z,94639.38
2023-06-29T18:20:51.980Z,94640.84
2023-06-29T18:23:18.971Z,94651.78
2023-06-29T18:25:46.459Z,94643.09
2023-06-29T18:28:13.769Z,94646.97
2023-06-29T18:30:40.766Z,94650.75
2023-06-29T18:33:07.817Z,94660.81
2023-06-29T18:35:34.794Z,94650.56
2023-06-29T18:38:01.772Z,94654.81
2023-06-29T18:40:29.349Z,94655.88
2023-06-29T18:42:56.379Z,94656.19
2023-06-29T18:45:26.022Z,94660.78
2023-06-29T18:47:53.423Z,94665.75
2023-06-29T18:50:20.612Z,94668.72
2023-06-29T18:55:14.708Z,94676.63
2023-06-29T18:57:41.782Z,94676.47
2023-06-29T19:00:09.579Z,94672.81
2023-06-29T19:02:36.662Z,94675.03
2023-06-29T19:05:06.209Z,94680.78
2023-06-29T19:07:33.227Z,94676.34
2023-06-29T19:10:00.279Z,94678.59
2023-06-29T19:12:27.355Z,94676.06
2023-06-29T19:14:54.518Z,94676.69
2023-06-29T19:17:21.893Z,94685.22
2023-06-29T19:19:49.195Z,94690.56
2023-06-29T19:22:16.430Z,94684.19
2023-06-29T19:24:43.340Z,94686.84
2023-06-29T19:27:10.449Z,94690.28
2023-06-29T19:29:37.414Z,94688.28
2023-06-29T19:32:06.174Z,94683.53
2023-06-29T19:34:34.857Z,94692.41
2023-06-29T19:37:04.214Z,94690.69
2023-06-29T19:39:31.388Z,94690.56
2023-06-29T19:41:58.441Z,94694.34
2023-06-29T19:44:25.612Z,94695.69
2023-06-29T19:46:52.828Z,94702.19
2023-06-29T19:49:20.248Z,94692.19
2023-06-29T19:51:47.259Z,94694.34
2023-06-29T19:54:14.256Z,94682.47
2023-06-29T19:56:41.367Z,94691.03
2023-06-29T19:59:08.607Z,94694.06
2023-06-29T20:01:35.630Z,94688.91
2023-06-29T20:04:02.837Z,94698.25
2023-06-29T20:06:31.284Z,94691.47
2023-06-29T20:08:58.311Z,94700.66
2023-06-29T20:11:25.632Z,94697.97
2023-06-29T20:13:52.650Z,94703.09
2023-06-29T20:16:19.809Z,94706.72
2023-06-29T20:18:46.930Z,94701.81
2023-06-29T20:21:15.072Z,94715.72
2023-06-29T20:23:42.090Z,94716.00
2023-06-29T20:26:09.167Z,94724.19
2023-06-29T20:28:36.106Z,94717.16
2023-06-29T20:31:03.190Z,94716.28
2023-06-29T20:33:30.258Z,94715.72
2023-06-29T20:35:57.258Z,94718.38
2023-06-29T20:38:24.201Z,94717.50
2023-06-29T20:40:51.190Z,94716.63
2023-06-29T20:43:18.246Z,94715.28
2023-06-29T20:45:49.564Z,94709.84
2023-06-29T20:48:17.115Z,94706.84
2023-06-29T20:50:44.263Z,94702.03
2023-06-29T20:53:11.568Z,94707.34
2023-06-29T20:55:38.541Z,94695.91
2023-06-29T20:58:05.693Z,94702.69
2023-06-29T21:00:35.264Z,94702.81
2023-06-29T21:03:02.282Z,94700.97
2023-06-29T21:05:29.277Z,94708.56
2023-06-29T21:07:56.347Z,94710.88
2023-06-29T21:10:23.495Z,94705.41
2023-06-29T21:12:50.930Z,94707.00
2023-06-29T21:15:18.241Z,94710.88
2023-06-29T21:17:45.380Z,94702.59
2023-06-29T21:20:13.186Z,94702.16
2023-06-29T21:22:40.675Z,94705.59
2023-06-29T21:25:08.857Z,94702.75
2023-06-29T21:27:36.757Z,94708.00
2023-06-29T21:30:04.349Z,94706.22
2023-06-29T21:32:31.615Z,94708.50
2023-06-29T21:34:58.923Z,94712.81
2023-06-29T21:37:26.057Z,94706.47
2023-06-29T21:39:52.978Z,94710.09
2023-06-29T21:42:20.025Z,94705.47
2023-06-29T21:44:47.348Z,94698.88
2023-06-29T21:47:14.469Z,94696.84
2023-06-29T21:49:41.648Z,94703.19
2023-06-29T21:52:08.965Z,94697.88
2023-06-29T21:54:35.936Z,94695.41
2023-06-29T21:57:03.116Z,94694.63
2023-06-29T21:59:33.339Z,94704.47
2023-06-29T22:02:01.546Z,94699.91
2023-06-29T22:04:30.352Z,94698.31
2023-06-29T22:07:06.490Z,94699.91
2023-06-29T22:09:42.354Z,94699.91
2023-06-29T22:12:13.025Z,94697.97
2023-06-29T22:14:40.267Z,94695.84
2023-06-29T22:17:08.204Z,94699.72
2023-06-29T22:19:38.157Z,94699.72
2023-06-29T22:22:07.908Z,94709.00
2023-06-29T22:24:34.810Z,94704.00
2023-06-29T22:27:01.770Z,94704.47
2023-06-29T22:29:28.748Z,94700.16
2023-06-29T22:31:55.743Z,94701.63
2023-06-29T22:34:22.691Z,94704.25
2023-06-29T22:36:49.656Z,94701.78
2023-06-29T22:39:16.661Z,94695.31
2023-06-29T22:41:43.617Z,94696.81
2023-06-29T22:44:10.545Z,94696.34
2023-06-29T22:46:37.686Z,94689.69
2023-06-29T22:49:04.625Z,94692.63
2023-06-29T22:51:31.696Z,94698.41
2023-06-29T22:53:59.328Z,94688.44
2023-06-29T22:56:26.341Z,94690.94
2023-06-29T22:59:14.543Z,94685.75
2023-06-29T23:01:42.219Z,94686.66
2023-06-29T23:04:09.696Z,94687.53
2023-06-29T23:06:40.837Z,94687.66
2023-06-29T23:09:11.556Z,94686.16
2023-06-29T23:11:39.481Z,94691.50
2023-06-29T23:14:07.293Z,94687.44
2023-06-29T23:16:34.351Z,94687.34
2023-06-29T23:19:01.761Z,94690.69
2023-06-29T23:21:29.280Z,94690.16
2023-06-29T23:23:56.651Z,94700.69
2023-06-29T23:26:24.313Z,94697.50
2023-06-29T23:28:54.739Z,94699.09
2023-06-29T23:31:22.692Z,94705.09
2023-06-29T23:33:50.528Z,94702.38
2023-06-29T23:36:27.222Z,94710.88
2023-06-29T23:38:58.620Z,94707.72
2023-06-29T23:41:31.572Z,94696.84
2023-06-29T23:44:07.740Z,94700.34
2023-06-29T23:46:45.936Z,94701.59
2023-06-29T23:49:18.326Z,94690.50
2023-06-29T23:51:46.003Z,94692.53
2023-06-29T23:54:13.185Z,94696.81
2023-06-29T23:56:41.419Z,94698.22
2023-06-29T23:59:10.448Z,94700.69
